Wetterdaten: aktuell Dienstag, 23.10.2018 07:10
Datum Zeit Temp. A. Feuchte A. Luftdruck Regen Wind Richtung Richtung Taupunkt Windchill Windben Empfang
23.10.2018 07:10 9,2 C 84 % 1022,3 hPa 0,0 l/m 17,4 km/h (3 Bft) SW 236 6,6 C 3,2 C 45,3 km/h (6 Bft) 99 %
23.10.2018 07:00 9,2 C 83 % 1022,4 hPa 0,0 l/m 14,6 km/h (3 Bft) W-SW 242 6,5 C 4,3 C 35,0 km/h (5 Bft) 100 %
23.10.2018 06:50 9,2 C 83 % 1022,6 hPa 0,0 l/m 15,0 km/h (3 Bft) S-SO 167 6,5 C 4,2 C 30,9 km/h (5 Bft) 98 %
23.10.2018 06:40 9,1 C 83 % 1022,8 hPa 0,0 l/m 14,5 km/h (3 Bft) S-SO 149 6,4 C 4,3 C 28,8 km/h (4 Bft) 100 %
23.10.2018 06:30 9,1 C 83 % 1023,0 hPa 0,0 l/m 13,3 km/h (3 Bft) S 182 6,4 C 4,8 C 24,7 km/h (4 Bft) 98 %
23.10.2018 06:20 9,1 C 82 % 1022,9 hPa 0,0 l/m 14,9 km/h (3 Bft) SW 217 6,2 C 4,1 C 30,9 km/h (5 Bft) 99 %
23.10.2018 06:10 9,0 C 82 % 1022,9 hPa 0,0 l/m 14,3 km/h (3 Bft) SW 219 6,1 C 4,2 C 30,9 km/h (5 Bft) 100 %
23.10.2018 06:00 8,9 C 82 % 1022,8 hPa 0,0 l/m 15,4 km/h (3 Bft) SW 219 6,0 C 3,6 C 28,8 km/h (4 Bft) 99 %
23.10.2018 05:50 8,9 C 81 % 1023,1 hPa 0,0 l/m 13,0 km/h (3 Bft) S-SW 205 5,8 C 4,7 C 28,8 km/h (4 Bft) 99 %
23.10.2018 05:40 8,9 C 81 % 1023,4 hPa 0,0 l/m 14,6 km/h (3 Bft) S-SW 205 5,8 C 4,0 C 30,9 km/h (5 Bft) 100 %
23.10.2018 05:30 8,8 C 81 % 1023,8 hPa 0,0 l/m 16,6 km/h (3 Bft) W-SW 242 5,7 C 3,0 C 33,0 km/h (5 Bft) 100 %
23.10.2018 05:20 8,8 C 81 % 1024,2 hPa 0,0 l/m 15,7 km/h (3 Bft) SW 226 5,7 C 3,4 C 33,0 km/h (5 Bft) 99 %
23.10.2018 05:10 8,8 C 80 % 1024,4 hPa 0,0 l/m 14,3 km/h (3 Bft) W-NW 301 5,5 C 4,0 C 39,1 km/h (6 Bft) 100 %
23.10.2018 05:00 8,7 C 80 % 1024,5 hPa 0,0 l/m 16,0 km/h (3 Bft) S-SW 196 5,4 C 3,1 C 33,0 km/h (5 Bft) 100 %
23.10.2018 04:50 8,7 C 80 % 1024,4 hPa 0,0 l/m 16,8 km/h (3 Bft) W-SW 244 5,4 C 2,8 C 41,2 km/h (6 Bft) 98 %
23.10.2018 04:40 8,6 C 81 % 1024,7 hPa 0,0 l/m 14,1 km/h (3 Bft) S-SW 196 5,5 C 3,8 C 33,0 km/h (5 Bft) 99 %
23.10.2018 04:30 8,5 C 81 % 1024,7 hPa 0,0 l/m 16,9 km/h (3 Bft) SW 229 5,4 C 2,5 C 41,2 km/h (6 Bft) 100 %
23.10.2018 04:20 8,4 C 82 % 1025,5 hPa 0,0 l/m 15,4 km/h (3 Bft) S-SW 207 5,5 C 3,0 C 35,0 km/h (5 Bft) 99 %
23.10.2018 04:10 8,2 C 83 % 1025,3 hPa 0,0 l/m 13,6 km/h (3 Bft) S-SO 157 5,5 C 3,6 C 33,0 km/h (5 Bft) 99 %
23.10.2018 04:00 7,8 C 84 % 1025,8 hPa 0,0 l/m 13,8 km/h (3 Bft) SW 219 5,3 C 3,0 C 28,8 km/h (4 Bft) 99 %
23.10.2018 03:50 7,6 C 85 % 1026,0 hPa 0,0 l/m 13,5 km/h (3 Bft) W-SW 257 5,2 C 3,0 C 24,7 km/h (4 Bft) 100 %
23.10.2018 03:40 7,3 C 85 % 1026,6 hPa 0,0 l/m 10,5 km/h (2 Bft) SW 227 4,9 C 4,3 C 24,7 km/h (4 Bft) 100 %
23.10.2018 03:30 7,2 C 85 % 1026,7 hPa 0,0 l/m 9,6 km/h (2 Bft) SW 219 4,9 C 4,8 C 22,7 km/h (4 Bft) 99 %
23.10.2018 03:20 7,1 C 85 % 1026,7 hPa 0,0 l/m 10,4 km/h (2 Bft) W 269 4,8 C 4,1 C 26,8 km/h (4 Bft) 100 %
23.10.2018 03:10 7,0 C 85 % 1027,1 hPa 0,0 l/m 10,0 km/h (2 Bft) S 186 4,7 C 4,3 C 20,6 km/h (4 Bft) 97 %
23.10.2018 03:00 7,0 C 85 % 1027,1 hPa 0,0 l/m 10,8 km/h (2 Bft) W 266 4,7 C 3,8 C 22,7 km/h (4 Bft) 99 %
23.10.2018 02:50 6,9 C 86 % 1027,3 hPa 0,0 l/m 9,8 km/h (2 Bft) NW 313 4,7 C 4,3 C 24,7 km/h (4 Bft) 100 %
23.10.2018 02:40 6,8 C 86 % 1027,4 hPa 0,0 l/m 11,0 km/h (2 Bft) S-SO 165 4,6 C 3,4 C 26,8 km/h (4 Bft) 99 %
23.10.2018 02:30 6,7 C 86 % 1027,4 hPa 0,0 l/m 11,0 km/h (2 Bft) S-SW 209 4,5 C 3,3 C 22,7 km/h (4 Bft) 100 %
23.10.2018 02:20 6,7 C 85 % 1028,2 hPa 0,0 l/m 12,2 km/h (2 Bft) S-SW 196 4,4 C 2,6 C 24,7 km/h (4 Bft) 99 %
23.10.2018 02:10 6,7 C 85 % 1028,5 hPa 0,0 l/m 7,2 km/h (2 Bft) W-SW 245 4,4 C 6,0 C 18,5 km/h (3 Bft) 100 %
23.10.2018 02:00 6,9 C 85 % 1028,8 hPa 0,0 l/m 7,1 km/h (2 Bft) SW 236 4,6 C 6,3 C 16,5 km/h (3 Bft) 99 %
23.10.2018 01:50 6,9 C 85 % 1028,5 hPa 0,0 l/m 9,2 km/h (2 Bft) S-SW 213 4,6 C 4,7 C 18,5 km/h (3 Bft) 99 %
23.10.2018 01:40 6,8 C 85 % 1028,4 hPa 0,0 l/m 11,5 km/h (2 Bft) W-SW 254 4,5 C 3,1 C 22,7 km/h (4 Bft) 100 %
23.10.2018 01:30 6,6 C 86 % 1028,6 hPa 0,0 l/m 11,4 km/h (2 Bft) SW 236 4,4 C 3,0 C 24,7 km/h (4 Bft) 100 %
23.10.2018 01:20 6,6 C 86 % 1029,0 hPa 0,0 l/m 10,7 km/h (2 Bft) W-SW 239 4,4 C 3,4 C 22,7 km/h (4 Bft) 99 %
23.10.2018 01:10 6,6 C 86 % 1029,5 hPa 0,0 l/m 10,1 km/h (2 Bft) S 185 4,4 C 3,8 C 20,6 km/h (4 Bft) 98 %
23.10.2018 01:00 6,5 C 86 % 1030,0 hPa 0,0 l/m 9,5 km/h (2 Bft) SW 221 4,3 C 4,1 C 20,6 km/h (4 Bft) 99 %
23.10.2018 00:50 6,5 C 86 % 1030,2 hPa 0,0 l/m 6,8 km/h (2 Bft) S 175 4,3 C 6,2 C 16,5 km/h (3 Bft) 99 %
23.10.2018 00:40 6,4 C 86 % 1030,4 hPa 0,0 l/m 7,7 km/h (2 Bft) SW 227 4,2 C 5,3 C 16,5 km/h (3 Bft) 99 %
23.10.2018 00:30 6,5 C 85 % 1030,5 hPa 0,0 l/m 5,8 km/h (2 Bft) W-SW 238 4,2 C 6,5 C 14,4 km/h (3 Bft) 99 %
23.10.2018 00:20 6,6 C 86 % 1030,6 hPa 0,0 l/m 5,4 km/h (1 Bft) S-SW 207 4,4 C 6,6 C 14,4 km/h (3 Bft) 99 %
23.10.2018 00:10 6,6 C 85 % 1030,5 hPa 0,0 l/m 4,9 km/h (1 Bft) SW 220 4,3 C 6,6 C 12,4 km/h (3 Bft) 99 %
23.10.2018 00:00 6,6 C 85 % 1030,5 hPa 0,0 l/m 5,1 km/h (1 Bft) S-SW 205 4,3 C 6,6 C 10,3 km/h (2 Bft) 100 %
22.10.2018 23:50 6,6 C 85 % 1030,7 hPa 0,0 l/m 4,5 km/h (1 Bft) S-SW 208 4,3 C 6,6 C 8,2 km/h (2 Bft) 99 %
22.10.2018 23:40 6,6 C 85 % 1031,1 hPa 0,0 l/m 3,3 km/h (1 Bft) S-SW 209 4,3 C 6,6 C 8,2 km/h (2 Bft) 99 %
22.10.2018 23:30 6,7 C 84 % 1031,1 hPa 0,0 l/m 3,9 km/h (1 Bft) SW 216 4,2 C 6,7 C 8,2 km/h (2 Bft) 99 %
22.10.2018 23:20 6,7 C 84 % 1031,4 hPa 0,0 l/m 3,8 km/h (1 Bft) SW 225 4,2 C 6,7 C 8,2 km/h (2 Bft) 99 %
22.10.2018 23:10 6,7 C 84 % 1031,6 hPa 0,0 l/m 3,1 km/h (1 Bft) W-SW 244 4,2 C 6,7 C 8,2 km/h (2 Bft) 100 %
22.10.2018 23:00 6,7 C 84 % 1031,4 hPa 0,0 l/m 3,3 km/h (1 Bft) W-SW 248 4,2 C 6,7 C 8,2 km/h (2 Bft) 99 %
22.10.2018 22:50 6,7 C 83 % 1031,6 hPa 0,0 l/m 3,5 km/h (1 Bft) W-SW 250 4,0 C 6,7 C 8,2 km/h (2 Bft) 100 %
22.10.2018 22:40 6,8 C 83 % 1031,6 hPa 0,0 l/m 2,0 km/h (1 Bft) W 261 4,1 C 6,8 C 6,2 km/h (2 Bft) 98 %
22.10.2018 22:30 6,8 C 82 % 1031,8 hPa 0,0 l/m 1,7 km/h (1 Bft) W 261 3,9 C 6,8 C 6,2 km/h (2 Bft) 99 %
22.10.2018 22:20 6,9 C 82 % 1031,7 hPa 0,0 l/m 2,7 km/h (1 Bft) W 261 4,0 C 6,9 C 8,2 km/h (2 Bft) 99 %
22.10.2018 22:10 6,8 C 83 % 1031,5 hPa 0,0 l/m 3,3 km/h (1 Bft) W 267 4,1 C 6,8 C 8,2 km/h (2 Bft) 99 %
22.10.2018 22:00 6,8 C 82 % 1031,7 hPa 0,0 l/m 1,4 km/h (1 Bft) W 275 3,9 C 6,8 C 4,1 km/h (1 Bft) 100 %
22.10.2018 21:50 6,8 C 81 % 1031,7 hPa 0,0 l/m 2,6 km/h (1 Bft) W 275 3,8 C 6,8 C 8,2 km/h (2 Bft) 99 %
22.10.2018 21:40 6,8 C 81 % 1031,7 hPa 0,0 l/m 1,4 km/h (1 Bft) W-NW 288 3,8 C 6,8 C 6,2 km/h (2 Bft) 100 %
22.10.2018 21:30 7,1 C 79 % 1031,9 hPa 0,0 l/m 0,1 km/h (0 Bft) NW 309 3,7 C 7,1 C 2,1 km/h (1 Bft) 98 %
22.10.2018 21:20 7,2 C 78 % 1031,9 hPa 0,0 l/m 0,1 km/h (0 Bft) NW 309 3,6 C 7,2 C 2,1 km/h (1 Bft) 100 %
22.10.2018 21:10 7,3 C 77 % 1031,9 hPa 0,0 l/m 0,9 km/h (0 Bft) NW 309 3,5 C 7,3 C 6,2 km/h (2 Bft) 100 %
22.10.2018 21:00 7,4 C 76 % 1031,8 hPa 0,0 l/m 0,8 km/h (0 Bft) NW 309 3,5 C 7,4 C 4,1 km/h (1 Bft) 99 %
22.10.2018 20:50 7,6 C 76 % 1031,8 hPa 0,0 l/m 0,4 km/h (0 Bft) NW 309 3,6 C 7,6 C 4,1 km/h (1 Bft) 99 %
22.10.2018 20:40 7,5 C 77 % 1031,9 hPa 0,0 l/m 0,0 km/h (0 Bft) NW 309 3,7 C 7,5 C 0,0 km/h (0 Bft) 100 %
22.10.2018 20:30 7,5 C 77 % 1032,0 hPa 0,0 l/m 0,0 km/h (0 Bft) NW 309 3,7 C 7,5 C 0,0 km/h (0 Bft) 100 %
22.10.2018 20:20 7,6 C 76 % 1032,2 hPa 0,0 l/m 0,0 km/h (0 Bft) NW 309 3,6 C 7,6 C 0,0 km/h (0 Bft) 99 %
22.10.2018 20:10 7,7 C 75 % 1032,1 hPa 0,0 l/m 0,0 km/h (0 Bft) NW 309 3,6 C 7,7 C 0,0 km/h (0 Bft) 100 %
22.10.2018 20:00 8,0 C 74 % 1032,2 hPa 0,0 l/m 0,0 km/h (0 Bft) NW 309 3,7 C 8,0 C 0,0 km/h (0 Bft) 99 %
22.10.2018 19:50 8,3 C 73 % 1032,3 hPa 0,0 l/m 0,0 km/h (0 Bft) NW 309 3,8 C 8,3 C 0,0 km/h (0 Bft) 99 %
22.10.2018 19:40 8,7 C 71 % 1032,3 hPa 0,0 l/m 0,0 km/h (0 Bft) NW 309 3,7 C 8,7 C 0,0 km/h (0 Bft) 99 %
22.10.2018 19:30 9,1 C 69 % 1032,3 hPa 0,0 l/m 0,0 km/h (0 Bft) NW 309 3,7 C 9,1 C 0,0 km/h (0 Bft) 100 %
22.10.2018 19:20 9,3 C 68 % 1032,3 hPa 0,0 l/m 0,0 km/h (0 Bft) NW 309 3,7 C 9,3 C 0,0 km/h (0 Bft) 98 %
22.10.2018 19:10 9,6 C 67 % 1032,4 hPa 0,0 l/m 0,0 km/h (0 Bft) NW 309 3,8 C 9,6 C 0,0 km/h (0 Bft) 98 %
22.10.2018 19:00 9,8 C 66 % 1032,5 hPa 0,0 l/m 0,0 km/h (0 Bft) NW 309 3,8 C 9,8 C 0,0 km/h (0 Bft) 100 %
22.10.2018 18:50 10,1 C 65 % 1032,3 hPa 0,0 l/m 0,0 km/h (0 Bft) NW 309 3,8 C 10,1 C 0,0 km/h (0 Bft) 99 %
22.10.2018 18:40 10,6 C 64 % 1032,2 hPa 0,0 l/m 0,0 km/h (0 Bft) NW 309 4,1 C 10,6 C 0,0 km/h (0 Bft) 99 %
22.10.2018 18:30 10,9 C 63 % 1032,1 hPa 0,0 l/m 0,0 km/h (0 Bft) NW 309 4,1 C 10,9 C 0,0 km/h (0 Bft) 100 %
22.10.2018 18:20 11,3 C 61 % 1032,0 hPa 0,0 l/m 0,6 km/h (0 Bft) NW 309 4,1 C 11,3 C 4,1 km/h (1 Bft) 100 %
22.10.2018 18:10 11,6 C 61 % 1032,0 hPa 0,0 l/m 2,4 km/h (1 Bft) NW 309 4,3 C 11,6 C 8,2 km/h (2 Bft) 99 %
22.10.2018 18:00 11,9 C 61 % 1032,1 hPa 0,0 l/m 3,3 km/h (1 Bft) NW 309 4,6 C 11,9 C 10,3 km/h (2 Bft) 100 %
22.10.2018 17:50 12,4 C 62 % 1032,0 hPa 0,0 l/m 2,4 km/h (1 Bft) NW 322 5,3 C 12,4 C 14,4 km/h (3 Bft) 99 %
22.10.2018 17:40 12,8 C 60 % 1031,9 hPa 0,0 l/m 3,0 km/h (1 Bft) N 355 5,2 C 12,8 C 12,4 km/h (3 Bft) 100 %
22.10.2018 17:30 13,2 C 59 % 1032,1 hPa 0,0 l/m 4,6 km/h (1 Bft) N-NW 330 5,4 C 13,2 C 12,4 km/h (3 Bft) 99 %
22.10.2018 17:20 13,6 C 59 % 1032,2 hPa 0,0 l/m 3,9 km/h (1 Bft) N-NO 24 5,7 C 13,6 C 16,5 km/h (3 Bft) 100 %
22.10.2018 17:10 13,5 C 59 % 1032,2 hPa 0,0 l/m 3,0 km/h (1 Bft) N-NO 19 5,6 C 13,5 C 10,3 km/h (2 Bft) 100 %
22.10.2018 17:00 13,5 C 58 % 1032,1 hPa 0,0 l/m 4,3 km/h (1 Bft) N-NO 20 5,4 C 13,5 C 16,5 km/h (3 Bft) 100 %
22.10.2018 16:50 13,7 C 57 % 1032,2 hPa 0,0 l/m 5,8 km/h (2 Bft) N-NW 346 5,3 C 13,7 C 16,5 km/h (3 Bft) 99 %
22.10.2018 16:40 13,7 C 57 % 1032,2 hPa 0,0 l/m 6,4 km/h (2 Bft) N 355 5,3 C 13,7 C 18,5 km/h (3 Bft) 100 %
22.10.2018 16:30 13,7 C 58 % 1032,2 hPa 0,0 l/m 4,8 km/h (1 Bft) NW 316 5,6 C 13,7 C 18,5 km/h (3 Bft) 100 %
22.10.2018 16:20 13,8 C 58 % 1032,1 hPa 0,0 l/m 6,1 km/h (2 Bft) S-SW 207 5,7 C 13,8 C 18,5 km/h (3 Bft) 99 %
22.10.2018 16:10 13,7 C 60 % 1032,1 hPa 0,0 l/m 6,4 km/h (2 Bft) N-NO 24 6,1 C 13,7 C 14,4 km/h (3 Bft) 100 %
22.10.2018 16:00 13,8 C 60 % 1032,0 hPa 0,0 l/m 3,8 km/h (1 Bft) N-NW 346 6,2 C 13,8 C 16,5 km/h (3 Bft) 100 %
22.10.2018 15:50 14,3 C 59 % 1032,0 hPa 0,0 l/m 7,2 km/h (2 Bft) NW 317 6,4 C 13,8 C 18,5 km/h (3 Bft) 100 %
22.10.2018 15:40 14,3 C 60 % 1031,2 hPa 0,0 l/m 8,4 km/h (2 Bft) N-NO 32 6,6 C 13,1 C 20,6 km/h (4 Bft) 99 %
22.10.2018 15:30 13,6 C 63 % 1031,5 hPa 0,0 l/m 4,3 km/h (1 Bft) NO 39 6,7 C 13,6 C 14,4 km/h (3 Bft) 99 %
22.10.2018 15:20 13,8 C 64 % 1031,4 hPa 0,0 l/m 3,4 km/h (1 Bft) W-NW 287 7,1 C 13,8 C 8,2 km/h (2 Bft) 99 %
22.10.2018 15:10 14,4 C 61 % 1031,3 hPa 0,0 l/m 6,9 km/h (2 Bft) NW 317 7,0 C 14,1 C 18,5 km/h (3 Bft) 100 %
22.10.2018 15:00 14,7 C 64 % 1031,3 hPa 0,0 l/m 6,6 km/h (2 Bft) NO 46 8,0 C 14,6 C 20,6 km/h (4 Bft) 99 %
22.10.2018 14:50 14,2 C 64 % 1031,6 hPa 0,0 l/m 7,3 km/h (2 Bft) NW 315 7,5 C 13,7 C 18,5 km/h (3 Bft) 99 %
22.10.2018 14:40 14,8 C 61 % 1031,6 hPa 0,0 l/m 8,6 km/h (2 Bft) N-NO 32 7,4 C 13,6 C 22,7 km/h (4 Bft) 99 %
22.10.2018 14:30 15,4 C 59 % 1031,5 hPa 0,0 l/m 6,3 km/h (2 Bft) N 11 7,4 C 15,4 C 20,6 km/h (4 Bft) 99 %
22.10.2018 14:20 14,6 C 56 % 1031,4 hPa 0,0 l/m 6,2 km/h (2 Bft) N-NO 15 5,9 C 14,6 C 20,6 km/h (4 Bft) 98 %
22.10.2018 14:10 14,1 C 58 % 1031,7 hPa 0,0 l/m 5,6 km/h (1 Bft) N 355 6,0 C 14,1 C 14,4 km/h (3 Bft) 98 %
22.10.2018 14:00 13,9 C 62 % 1031,6 hPa 0,0 l/m 6,0 km/h (2 Bft) NW 320 6,7 C 13,9 C 20,6 km/h (4 Bft) 99 %
22.10.2018 13:50 13,9 C 62 % 1031,7 hPa 0,0 l/m 8,3 km/h (2 Bft) N 355 6,7 C 12,8 C 20,6 km/h (4 Bft) 100 %
22.10.2018 13:40 14,2 C 65 % 1031,6 hPa 0,0 l/m 4,2 km/h (1 Bft) NW 325 7,7 C 14,2 C 14,4 km/h (3 Bft) 100 %
22.10.2018 13:30 14,1 C 64 % 1031,6 hPa 0,0 l/m 6,3 km/h (2 Bft) N-NO 24 7,4 C 14,1 C 20,6 km/h (4 Bft) 99 %
22.10.2018 13:20 14,5 C 63 % 1031,6 hPa 0,0 l/m 6,9 km/h (2 Bft) NO 34 7,5 C 14,2 C 24,7 km/h (4 Bft) 99 %
22.10.2018 13:10 15,1 C 60 % 1031,6 hPa 0,0 l/m 8,2 km/h (2 Bft) W 281 7,4 C 14,1 C 22,7 km/h (4 Bft) 99 %
22.10.2018 13:00 14,8 C 63 % 1031,6 hPa 0,0 l/m 5,7 km/h (1 Bft) N-NO 14 7,8 C 14,8 C 18,5 km/h (3 Bft) 100 %
22.10.2018 12:50 14,9 C 59 % 1031,6 hPa 0,0 l/m 7,0 km/h (2 Bft) N-NO 17 7,0 C 14,6 C 18,5 km/h (3 Bft) 99 %
22.10.2018 12:40 15,6 C 56 % 1031,6 hPa 0,0 l/m 8,5 km/h (2 Bft) N 360 6,9 C 14,5 C 22,7 km/h (4 Bft) 98 %
22.10.2018 12:30 15,1 C 59 % 1031,4 hPa 0,0 l/m 7,1 km/h (2 Bft) N-NW 339 7,1 C 14,7 C 18,5 km/h (3 Bft) 100 %
22.10.2018 12:20 14,7 C 60 % 1031,5 hPa 0,0 l/m 5,1 km/h (1 Bft) N 360 7,0 C 14,7 C 14,4 km/h (3 Bft) 99 %
22.10.2018 12:10 14,4 C 61 % 1031,4 hPa 0,0 l/m 7,4 km/h (2 Bft) N-NW 335 7,0 C 13,8 C 22,7 km/h (4 Bft) 100 %
22.10.2018 12:00 14,6 C 62 % 1031,5 hPa 0,0 l/m 7,6 km/h (2 Bft) NO 44 7,4 C 13,9 C 20,6 km/h (4 Bft) 98 %
22.10.2018 11:50 14,4 C 67 % 1031,5 hPa 0,0 l/m 7,1 km/h (2 Bft) N-NO 15 8,4 C 14,0 C 26,8 km/h (4 Bft) 99 %
22.10.2018 11:40 13,9 C 69 % 1031,4 hPa 0,0 l/m 6,4 km/h (2 Bft) N-NO 19 8,3 C 13,9 C 24,7 km/h (4 Bft) 99 %
22.10.2018 11:30 13,5 C 76 % 1031,3 hPa 0,0 l/m 6,3 km/h (2 Bft) NO 34 9,4 C 13,5 C 18,5 km/h (3 Bft) 98 %
22.10.2018 11:20 13,2 C 78 % 1031,3 hPa 0,0 l/m 8,1 km/h (2 Bft) N 355 9,4 C 12,2 C 20,6 km/h (4 Bft) 100 %
22.10.2018 11:10 12,8 C 81 % 1031,2 hPa 0,0 l/m 7,9 km/h (2 Bft) N 355 9,6 C 11,9 C 24,7 km/h (4 Bft) 99 %
22.10.2018 11:00 12,7 C 83 % 1031,1 hPa 0,0 l/m 5,6 km/h (1 Bft) N-NO 17 9,9 C 12,7 C 20,6 km/h (4 Bft) 99 %
22.10.2018 10:50 12,4 C 85 % 1030,8 hPa 0,0 l/m 6,3 km/h (2 Bft) NW 318 9,9 C 12,4 C 18,5 km/h (3 Bft) 99 %
22.10.2018 10:40 11,9 C 88 % 1030,7 hPa 0,0 l/m 4,9 km/h (1 Bft) NW 312 10,0 C 11,9 C 14,4 km/h (3 Bft) 100 %
22.10.2018 10:30 11,6 C 89 % 1030,5 hPa 0,0 l/m 3,4 km/h (1 Bft) N-NO 12 9,8 C 11,6 C 12,4 km/h (3 Bft) 100 %
22.10.2018 10:20 11,3 C 90 % 1030,3 hPa 0,0 l/m 3,6 km/h (1 Bft) NW 313 9,7 C 11,3 C 12,4 km/h (3 Bft) 100 %
22.10.2018 10:10 11,3 C 91 % 1030,1 hPa 0,0 l/m 0,7 km/h (0 Bft) NO 46 9,9 C 11,3 C 6,2 km/h (2 Bft) 100 %
22.10.2018 10:00 11,3 C 92 % 1030,1 hPa 0,0 l/m 0,7 km/h (0 Bft) N 355 10,0 C 11,3 C 4,1 km/h (1 Bft) 100 %
22.10.2018 09:50 11,2 C 93 % 1030,1 hPa 0,0 l/m 1,7 km/h (1 Bft) NW 307 10,1 C 11,2 C 6,2 km/h (2 Bft) 100 %
22.10.2018 09:40 11,1 C 93 % 1029,9 hPa 0,0 l/m 1,4 km/h (1 Bft) NW 315 10,0 C 11,1 C 8,2 km/h (2 Bft) 100 %
22.10.2018 09:30 11,1 C 93 % 1029,8 hPa 0,0 l/m 0,7 km/h (0 Bft) N-NW 339 10,0 C 11,1 C 6,2 km/h (2 Bft) 100 %
22.10.2018 09:20 11,1 C 93 % 1029,7 hPa 0,0 l/m 1,1 km/h (1 Bft) N-NW 344 10,0 C 11,1 C 6,2 km/h (2 Bft) 99 %
22.10.2018 09:10 11,2 C 93 % 1029,5 hPa 0,0 l/m 0,4 km/h (0 Bft) N 9 10,1 C 11,2 C 4,1 km/h (1 Bft) 100 %
22.10.2018 09:00 11,3 C 94 % 1029,3 hPa 0,0 l/m 0,4 km/h (0 Bft) N 9 10,4 C 11,3 C 2,1 km/h (1 Bft) 100 %
22.10.2018 08:50 11,2 C 94 % 1029,2 hPa 0,0 l/m 0,7 km/h (0 Bft) N-NO 23 10,3 C 11,2 C 4,1 km/h (1 Bft) 99 %
22.10.2018 08:40 11,2 C 94 % 1029,0 hPa 0,0 l/m 0,6 km/h (0 Bft) N-NO 23 10,3 C 11,2 C 4,1 km/h (1 Bft) 98 %
22.10.2018 08:30 11,2 C 93 % 1028,8 hPa 0,0 l/m 1,5 km/h (1 Bft) N-NO 32 10,1 C 11,2 C 6,2 km/h (2 Bft) 99 %
22.10.2018 08:20 11,3 C 93 % 1028,6 hPa 0,0 l/m 2,8 km/h (1 Bft) N-NO 16 10,2 C 11,3 C 6,2 km/h (2 Bft) 100 %
22.10.2018 08:10 11,3 C 94 % 1028,4 hPa 0,0 l/m 5,2 km/h (1 Bft) N-NO 32 10,4 C 11,3 C 16,5 km/h (3 Bft) 100 %
22.10.2018 08:00 11,4 C 94 % 1028,4 hPa 0,0 l/m 5,3 km/h (1 Bft) SO 140 10,5 C 11,4 C 16,5 km/h (3 Bft) 99 %
_ Min-Zeit 00:40 12:40 07:10 - 18:30 - - 21:00 04:30 18:30 03:10
Minimum _ 6,4 C 56 % 1022,3 hPa - 0,0 km/h (0 Bft) - - 3,5 C 2,5 C 0,0 km/h (0 Bft) 97 %
_ Max-Zeit 12:40 08:00 19:00 08:00 07:10 - - 08:00 14:30 07:10 08:10
Maximum _ 15,6 C 94 % 1032,5 hPa 0,0 l/m 17,4 km/h
SW (3 Bft)
- - 10,5 C 15,4 C 45,3 km/h
S-SO (6 Bft)
100 %
Durchschnitt _ 10,3 C 78 % 1029,7 hPa #0,0 l/m 6,1 km/h (2 Bft) NW - 6,3 C 9,2 C 16,0 km/h (3 Bft) 99 %